Time;durP1;ratioP1;P1;durP2;ratioP2;P2;SDS_P1;SDS_P2;PMS_P1;PMS_P2;Temp;Humidity;BMP_temperature;BMP_pressure;BME280_temperature;BME280_humidity;BME280_pressure;Samples;Min_cycle;Max_cycle;Signal;HPM_P1;HPM_P2
2021/01/08 00:01:53;;;;;;;5.17;3.27;;;3.70;93.70;;;;;;4314509;33;20490;-64
2021/01/08 00:04:22;;;;;;;10.97;4.10;;;3.70;93.80;;;;;;4317019;33;20186;-64
2021/01/08 00:06:55;;;;;;;5.63;4.03;;;3.70;93.80;;;;;;4315193;33;20166;-66
2021/01/08 00:09:23;;;;;;;8.57;3.73;;;3.80;93.80;;;;;;4315521;33;20162;-63
2021/01/08 00:11:57;;;;;;;5.73;3.70;;;3.80;93.80;;;;;;4316711;33;20192;-66
2021/01/08 00:14:24;;;;;;;4.17;3.00;;;3.90;93.80;;;;;;4311397;33;20240;-63
2021/01/08 00:17:02;;;;;;;4.13;2.63;;;3.80;93.70;;;;;;4314917;33;20176;-64
2021/01/08 00:19:31;;;;;;;2.90;2.27;;;3.80;93.60;;;;;;4312223;33;20513;-63
2021/01/08 00:22:01;;;;;;;8.37;3.23;;;3.80;93.60;;;;;;4317371;33;20248;-63
2021/01/08 00:24:27;;;;;;;2.87;2.30;;;3.80;93.50;;;;;;4305868;33;20216;-65
2021/01/08 00:27:10;;;;;;;5.27;2.70;;;3.70;93.60;;;;;;4315336;33;20180;-63
2021/01/08 00:29:39;;;;;;;3.60;2.77;;;3.70;93.60;;;;;;4316461;33;20596;-65
2021/01/08 00:32:10;;;;;;;3.00;2.07;;;3.70;93.60;;;;;;4315085;33;20150;-62
2021/01/08 00:34:39;;;;;;;3.90;2.00;;;3.60;93.70;;;;;;4315242;33;20589;-67
2021/01/08 00:37:07;;;;;;;4.30;2.40;;;3.70;93.60;;;;;;4315348;33;20602;-65
2021/01/08 00:39:33;;;;;;;3.20;1.83;;;3.70;93.70;;;;;;4316442;33;20235;-63
2021/01/08 00:42:01;;;;;;;2.63;1.90;;;3.70;93.60;;;;;;4315239;33;20146;-63
2021/01/08 00:44:29;;;;;;;2.57;2.10;;;3.80;93.60;;;;;;4315274;33;20188;-63
2021/01/08 00:46:56;;;;;;;3.23;1.93;;;3.80;93.50;;;;;;4314676;33;20193;-65
2021/01/08 00:49:24;;;;;;;2.37;1.87;;;3.80;93.50;;;;;;4314913;33;20168;-66
2021/01/08 00:51:50;;;;;;;4.13;2.37;;;3.80;93.50;;;;;;4314714;33;20228;-65
2021/01/08 00:54:20;;;;;;;2.77;1.90;;;3.70;93.60;;;;;;4315289;33;20203;-62
2021/01/08 00:56:48;;;;;;;1.97;1.70;;;3.70;93.60;;;;;;4316148;33;20161;-65
2021/01/08 00:59:19;;;;;;;2.17;1.83;;;3.70;93.60;;;;;;4316601;33;20145;-64
2021/01/08 01:01:48;;;;;;;3.17;2.27;;;3.70;93.60;;;;;;4311518;33;20181;-63
2021/01/08 01:04:18;;;;;;;2.77;2.27;;;3.70;93.60;;;;;;4316067;33;20553;-63
2021/01/08 01:06:45;;;;;;;3.00;2.63;;;3.80;93.70;;;;;;4314505;33;20177;-63
2021/01/08 01:09:13;;;;;;;6.20;3.33;;;3.80;93.60;;;;;;4314722;33;20182;-63
2021/01/08 01:11:40;;;;;;;3.83;2.80;;;3.80;93.60;;;;;;4316141;33;20166;-63
2021/01/08 01:14:06;;;;;;;4.43;3.37;;;3.80;93.60;;;;;;4315817;33;20510;-63
2021/01/08 01:16:35;;;;;;;7.00;3.37;;;3.80;93.60;;;;;;4312912;33;20158;-63
2021/01/08 01:19:09;;;;;;;4.07;3.27;;;3.90;93.70;;;;;;4315865;33;20213;-63
2021/01/08 01:21:36;;;;;;;4.37;3.10;;;3.90;93.60;;;;;;4315283;33;20163;-63
2021/01/08 01:24:03;;;;;;;7.40;4.23;;;3.90;93.60;;;;;;4315898;33;20235;-63
2021/01/08 01:26:33;;;;;;;6.27;3.70;;;3.90;93.60;;;;;;4312820;33;20183;-63
2021/01/08 01:29:02;;;;;;;5.13;3.87;;;3.90;93.60;;;;;;4309922;33;20158;-63
2021/01/08 01:31:29;;;;;;;5.83;4.27;;;3.90;93.50;;;;;;4314031;33;20166;-63
2021/01/08 01:33:55;;;;;;;7.13;4.60;;;4.00;93.50;;;;;;4310945;33;20168;-63
2021/01/08 01:36:21;;;;;;;7.40;4.40;;;3.90;93.50;;;;;;4315720;33;20178;-63
2021/01/08 01:38:49;;;;;;;6.23;4.57;;;4.00;93.50;;;;;;4314243;33;20163;-63
2021/01/08 01:41:19;;;;;;;7.17;4.67;;;4.00;93.50;;;;;;4313695;33;20221;-63
2021/01/08 01:43:45;;;;;;;6.00;4.40;;;4.00;93.50;;;;;;4313723;33;20164;-63
2021/01/08 01:46:22;;;;;;;7.03;4.33;;;4.00;93.40;;;;;;4313942;33;20194;-63
2021/01/08 01:48:49;;;;;;;5.90;4.53;;;3.90;93.50;;;;;;4315384;33;20186;-63
2021/01/08 01:51:20;;;;;;;4.53;3.57;;;4.00;93.50;;;;;;4314766;33;20467;-63
2021/01/08 01:53:46;;;;;;;8.53;5.40;;;4.00;93.50;;;;;;4313983;33;20218;-63
2021/01/08 01:56:13;;;;;;;6.73;4.60;;;4.00;93.40;;;;;;4314168;33;20294;-63
2021/01/08 01:58:40;;;;;;;7.73;4.70;;;4.00;93.40;;;;;;4315750;33;20566;-63
2021/01/08 02:01:13;;;;;;;7.07;4.77;;;4.00;93.50;;;;;;4312266;33;20190;-63
2021/01/08 02:03:46;;;;;;;6.73;4.40;;;4.00;93.40;;;;;;4312773;33;20165;-63
2021/01/08 02:06:16;;;;;;;7.20;4.67;;;4.00;93.40;;;;;;4314708;33;20220;-63
2021/01/08 02:08:50;;;;;;;6.43;4.80;;;4.00;93.40;;;;;;4317683;33;20192;-63
2021/01/08 02:11:23;;;;;;;7.37;4.33;;;4.10;93.40;;;;;;4320709;33;20227;-63
2021/01/08 02:13:54;;;;;;;7.47;5.17;;;4.10;93.40;;;;;;4309377;33;20157;-63
2021/01/08 02:16:31;;;;;;;5.17;4.10;;;4.00;93.40;;;;;;4316222;33;20172;-63
2021/01/08 02:18:59;;;;;;;5.47;3.90;;;4.10;93.50;;;;;;4331865;33;20571;-63
2021/01/08 02:21:33;;;;;;;6.27;4.40;;;4.10;93.50;;;;;;4318588;33;20181;-63
2021/01/08 02:24:08;;;;;;;7.70;4.43;;;4.00;93.40;;;;;;4316969;33;20566;-63
2021/01/08 02:26:38;;;;;;;4.87;3.80;;;4.00;93.40;;;;;;4315013;33;20270;-63
2021/01/08 02:29:04;;;;;;;5.90;4.27;;;4.00;93.40;;;;;;4316363;33;20209;-63
2021/01/08 02:31:32;;;;;;;5.17;3.67;;;4.00;93.40;;;;;;4314956;33;20217;-63
2021/01/08 02:33:59;;;;;;;5.13;3.63;;;3.90;93.40;;;;;;4312196;33;20232;-63
2021/01/08 02:36:28;;;;;;;5.53;2.97;;;4.00;93.40;;;;;;4312064;33;20185;-63
2021/01/08 02:38:57;;;;;;;6.33;3.73;;;4.00;93.40;;;;;;4314717;33;20169;-63
2021/01/08 02:41:30;;;;;;;6.33;3.23;;;3.90;93.40;;;;;;4314254;33;20494;-62
2021/01/08 02:44:01;;;;;;;3.53;2.73;;;3.80;93.40;;;;;;4313359;33;20299;-62
2021/01/08 02:46:28;;;;;;;8.20;3.07;;;3.70;93.50;;;;;;4312140;33;20158;-63
2021/01/08 02:51:36;;;;;;;5.27;2.80;;;3.70;93.50;;;;;;4311461;33;20263;-62
2021/01/08 02:54:04;;;;;;;5.90;2.57;;;3.70;93.60;;;;;;4313146;33;20219;-63
2021/01/08 02:56:37;;;;;;;6.10;2.40;;;3.70;93.60;;;;;;4315369;33;20171;-63
2021/01/08 02:59:05;;;;;;;4.07;2.60;;;3.70;93.70;;;;;;4315652;33;20157;-63
2021/01/08 03:01:32;;;;;;;4.47;2.40;;;3.80;93.60;;;;;;4316192;33;20245;-62
2021/01/08 03:04:00;;;;;;;4.07;2.87;;;3.70;93.60;;;;;;4313009;33;20161;-63
2021/01/08 03:06:28;;;;;;;4.80;2.40;;;3.80;93.60;;;;;;4314990;33;20192;-63
2021/01/08 03:08:56;;;;;;;6.37;2.83;;;3.80;93.70;;;;;;4316926;33;20172;-63
2021/01/08 03:11:25;;;;;;;4.63;3.60;;;3.70;93.70;;;;;;4317749;33;20224;-63
2021/01/08 03:13:53;;;;;;;5.57;3.37;;;3.60;93.80;;;;;;4317446;33;20231;-63
2021/01/08 03:16:23;;;;;;;3.90;3.20;;;3.60;93.80;;;;;;4317652;33;20297;-63
2021/01/08 03:18:49;;;;;;;7.57;3.23;;;3.70;93.80;;;;;;4315934;33;20180;-63
2021/01/08 03:21:26;;;;;;;4.67;3.27;;;3.70;93.80;;;;;;4316412;33;20184;-63
2021/01/08 03:23:55;;;;;;;2.80;2.47;;;3.70;93.80;;;;;;4315698;33;20213;-63
2021/01/08 03:26:25;;;;;;;4.80;2.70;;;3.60;93.80;;;;;;4314392;33;20204;-63
2021/01/08 03:28:52;;;;;;;4.80;2.97;;;3.60;93.80;;;;;;4315814;33;20225;-63
2021/01/08 03:31:19;;;;;;;3.33;2.53;;;3.50;93.90;;;;;;4317140;33;20316;-63
2021/01/08 03:33:46;;;;;;;2.83;2.53;;;3.60;93.80;;;;;;4315808;33;20594;-63
2021/01/08 03:36:16;;;;;;;6.10;2.47;;;3.60;93.90;;;;;;4316359;33;20197;-63
2021/01/08 03:38:43;;;;;;;4.87;3.10;;;3.60;93.80;;;;;;4316365;33;20150;-63
2021/01/08 03:41:16;;;;;;;3.90;2.90;;;3.60;93.90;;;;;;4318537;33;20288;-63
2021/01/08 03:43:44;;;;;;;3.73;2.37;;;3.60;93.90;;;;;;4316814;33;20162;-63
2021/01/08 03:46:12;;;;;;;3.27;2.53;;;3.50;93.90;;;;;;4317173;33;20181;-63
2021/01/08 03:48:40;;;;;;;4.23;2.97;;;3.50;93.90;;;;;;4310515;33;20158;-63
2021/01/08 03:51:08;;;;;;;4.60;3.23;;;3.50;94.00;;;;;;4316792;33;20231;-63
2021/01/08 03:53:34;;;;;;;4.53;2.87;;;3.60;94.00;;;;;;4306793;33;20157;-63
2021/01/08 03:56:01;;;;;;;4.63;3.47;;;3.60;94.10;;;;;;4316965;33;20598;-63
2021/01/08 03:58:29;;;;;;;3.73;2.77;;;3.60;94.00;;;;;;4315902;33;20169;-63
2021/01/08 04:00:56;;;;;;;3.53;2.83;;;3.60;94.00;;;;;;4314275;33;20482;-63
2021/01/08 04:03:29;;;;;;;5.17;2.80;;;3.60;93.90;;;;;;4314607;33;20219;-63
2021/01/08 04:05:55;;;;;;;6.33;3.60;;;3.60;93.90;;;;;;4317465;33;20277;-62
2021/01/08 04:08:23;;;;;;;3.93;3.00;;;3.60;93.90;;;;;;4317382;33;20663;-62
2021/01/08 04:10:56;;;;;;;6.57;3.13;;;3.60;93.90;;;;;;4313251;33;20597;-63
2021/01/08 04:13:25;;;;;;;5.97;2.80;;;3.60;93.90;;;;;;4315147;33;20213;-62
2021/01/08 04:15:51;;;;;;;5.40;3.40;;;3.60;93.90;;;;;;4315139;33;20244;-62
2021/01/08 04:18:18;;;;;;;4.73;3.50;;;3.50;93.80;;;;;;4316940;33;20222;-63
2021/01/08 04:20:44;;;;;;;4.50;3.67;;;3.50;93.80;;;;;;4316876;33;20522;-63
2021/01/08 04:23:16;;;;;;;5.60;3.60;;;3.50;93.90;;;;;;4316416;33;20208;-63
2021/01/08 04:25:47;;;;;;;4.30;3.27;;;3.50;93.90;;;;;;4317000;33;20626;-62
2021/01/08 04:28:13;;;;;;;3.90;2.93;;;3.40;94.00;;;;;;4318629;33;20186;-63
2021/01/08 04:30:41;;;;;;;5.53;2.93;;;3.40;94.00;;;;;;4316497;33;20594;-63
2021/01/08 04:33:09;;;;;;;4.47;3.23;;;3.40;93.90;;;;;;4316359;33;20165;-63
2021/01/08 04:35:36;;;;;;;4.77;3.30;;;3.40;93.90;;;;;;4318203;33;20201;-63
2021/01/08 04:38:05;;;;;;;4.67;3.47;;;3.20;93.90;;;;;;4331562;33;20158;-63
2021/01/08 04:40:34;;;;;;;5.73;4.07;;;3.20;93.90;;;;;;4311915;33;20544;-61
2021/01/08 04:43:06;;;;;;;7.10;3.60;;;3.20;93.90;;;;;;4316159;33;20161;-62
2021/01/08 04:45:36;;;;;;;5.57;3.97;;;3.20;94.00;;;;;;4315177;33;20188;-62
2021/01/08 04:48:05;;;;;;;4.40;3.57;;;3.20;94.10;;;;;;4315774;33;20174;-62
2021/01/08 04:50:38;;;;;;;3.70;3.30;;;3.20;94.20;;;;;;4313805;33;20232;-63
2021/01/08 04:53:10;;;;;;;4.13;3.27;;;3.30;94.30;;;;;;4314645;33;20222;-62
2021/01/08 04:55:37;;;;;;;4.90;3.20;;;3.30;94.20;;;;;;4315277;33;20188;-62
2021/01/08 04:58:09;;;;;;;3.90;3.03;;;3.30;94.20;;;;;;4314979;33;20211;-63
2021/01/08 05:00:35;;;;;;;4.17;3.13;;;3.30;94.20;;;;;;4315188;33;20244;-62
2021/01/08 05:03:02;;;;;;;4.40;3.33;;;3.30;94.10;;;;;;4313925;33;20180;-63
2021/01/08 05:05:32;;;;;;;4.60;3.20;;;3.30;94.00;;;;;;4315597;33;20462;-63
2021/01/08 05:08:00;;;;;;;8.07;3.83;;;3.20;94.00;;;;;;4312909;33;20379;-63
2021/01/08 05:10:32;;;;;;;5.70;4.20;;;3.10;93.90;;;;;;4314620;33;20182;-62
2021/01/08 05:13:01;;;;;;;4.17;3.27;;;3.10;93.90;;;;;;4315739;33;20217;-62
2021/01/08 05:15:31;;;;;;;4.03;3.47;;;3.10;93.90;;;;;;4314347;33;20591;-62
2021/01/08 05:18:01;;;;;;;4.07;3.00;;;3.10;93.90;;;;;;4316740;33;20220;-63
2021/01/08 05:20:32;;;;;;;4.93;3.20;;;3.00;93.90;;;;;;4314725;33;20173;-62
2021/01/08 05:23:02;;;;;;;5.10;3.57;;;3.00;94.00;;;;;;4314746;33;20165;-63
2021/01/08 05:25:28;;;;;;;6.50;3.87;;;2.90;94.00;;;;;;4311140;33;20334;-63
2021/01/08 05:27:59;;;;;;;6.07;3.83;;;2.90;94.00;;;;;;4311431;33;20188;-63
2021/01/08 05:30:28;;;;;;;5.07;2.83;;;2.90;94.10;;;;;;4314863;33;20174;-63
2021/01/08 05:32:59;;;;;;;4.53;3.43;;;2.90;94.10;;;;;;4316084;33;20661;-63
2021/01/08 05:35:28;;;;;;;4.13;3.60;;;2.90;94.10;;;;;;4313177;33;20182;-62
2021/01/08 05:37:57;;;;;;;4.60;3.90;;;2.80;94.00;;;;;;4314914;33;20153;-63
2021/01/08 05:40:43;;;;;;;5.47;3.80;;;2.80;94.10;;;;;;4312686;33;20205;-62
2021/01/08 05:43:22;;;;;;;4.43;3.30;;;2.70;94.00;;;;;;4314051;33;20609;-63
2021/01/08 05:45:56;;;;;;;5.93;4.00;;;2.70;94.00;;;;;;4309442;33;20169;-69
2021/01/08 05:48:29;;;;;;;4.70;3.80;;;2.70;94.10;;;;;;4314987;33;20252;-62
2021/01/08 05:51:01;;;;;;;4.47;3.50;;;2.70;94.10;;;;;;4324611;33;20220;-65
2021/01/08 05:53:33;;;;;;;4.47;3.83;;;2.70;94.10;;;;;;4322046;33;20169;-63
2021/01/08 05:56:00;;;;;;;4.90;3.40;;;2.70;94.10;;;;;;4316816;33;20161;-66
2021/01/08 05:58:33;;;;;;;7.50;3.90;;;2.70;94.10;;;;;;4315723;33;20196;-64
2021/01/08 06:01:01;;;;;;;6.47;3.57;;;2.70;94.20;;;;;;4314669;33;20186;-63
2021/01/08 06:03:41;;;;;;;5.27;3.30;;;2.70;94.20;;;;;;4316303;33;20553;-63
2021/01/08 06:06:14;;;;;;;5.17;3.97;;;2.70;94.20;;;;;;4310374;33;20169;-66
2021/01/08 06:08:48;;;;;;;4.10;3.70;;;2.60;94.20;;;;;;4314401;33;20177;-64
2021/01/08 06:11:18;;;;;;;5.23;3.80;;;2.60;94.20;;;;;;4315380;33;20570;-63
2021/01/08 06:13:45;;;;;;;4.93;4.00;;;2.60;94.30;;;;;;4314324;33;20563;-65
2021/01/08 06:16:17;;;;;;;6.47;4.30;;;2.60;94.30;;;;;;4316059;33;20158;-68
2021/01/08 06:18:48;;;;;;;8.53;4.03;;;2.60;94.40;;;;;;4308008;33;20161;-65
2021/01/08 06:21:19;;;;;;;6.50;4.27;;;2.60;94.50;;;;;;4313258;33;20154;-62
2021/01/08 06:23:49;;;;;;;6.97;4.63;;;2.70;94.60;;;;;;4311511;33;20543;-65
2021/01/08 06:26:16;;;;;;;5.63;3.63;;;2.70;94.50;;;;;;4316395;33;20228;-65
2021/01/08 06:28:49;;;;;;;4.47;3.63;;;2.70;94.50;;;;;;4315415;33;20240;-63
2021/01/08 06:31:26;;;;;;;4.73;4.03;;;2.70;94.50;;;;;;4313315;33;20188;-63
2021/01/08 06:33:56;;;;;;;5.00;4.00;;;2.70;94.50;;;;;;4313661;33;20205;-63
2021/01/08 06:36:24;;;;;;;5.93;4.27;;;2.70;94.60;;;;;;4312519;33;20263;-63
2021/01/08 06:39:03;;;;;;;5.17;3.90;;;2.70;95.00;;;;;;4308957;33;20162;-64
2021/01/08 06:41:34;;;;;;;7.10;4.53;;;2.80;94.80;;;;;;4316194;33;20216;-62
2021/01/08 06:44:09;;;;;;;7.17;5.50;;;2.80;94.80;;;;;;4312593;33;20184;-62
2021/01/08 06:46:38;;;;;;;7.83;4.87;;;2.80;94.80;;;;;;4313329;33;20283;-63
2021/01/08 06:49:07;;;;;;;8.63;6.03;;;2.80;94.80;;;;;;4314920;33;20154;-62
2021/01/08 06:51:37;;;;;;;9.80;5.50;;;2.80;94.80;;;;;;4315310;33;20195;-66
2021/01/08 06:54:05;;;;;;;5.97;4.77;;;2.80;94.90;;;;;;4316600;33;20181;-66
2021/01/08 06:56:36;;;;;;;7.20;5.33;;;2.90;95.00;;;;;;4314980;33;20166;-62
2021/01/08 06:59:04;;;;;;;7.87;5.33;;;2.90;95.00;;;;;;4303215;33;20528;-62
2021/01/08 07:01:52;;;;;;;8.40;6.20;;;3.00;95.10;;;;;;4314952;33;20631;-67
2021/01/08 07:04:20;;;;;;;8.93;5.87;;;3.00;95.10;;;;;;4313396;33;20220;-64
2021/01/08 07:06:55;;;;;;;7.47;5.07;;;3.00;95.10;;;;;;4315051;33;20208;-67
2021/01/08 07:09:36;;;;;;;8.07;6.03;;;3.10;95.10;;;;;;4312822;33;20300;-67
2021/01/08 07:12:04;;;;;;;10.13;5.83;;;3.10;95.10;;;;;;4311578;33;20154;-62
2021/01/08 07:14:31;;;;;;;9.47;5.10;;;3.10;95.00;;;;;;4311733;33;20200;-63
2021/01/08 07:16:59;;;;;;;10.90;6.53;;;3.20;95.00;;;;;;4312171;33;20166;-63
2021/01/08 07:19:29;;;;;;;10.10;6.07;;;3.20;95.00;;;;;;4313065;33;20184;-63
2021/01/08 07:21:56;;;;;;;8.77;5.53;;;3.20;95.00;;;;;;4312782;33;20164;-62
2021/01/08 07:24:27;;;;;;;8.07;5.43;;;3.20;95.00;;;;;;4313835;33;20239;-63
2021/01/08 07:26:55;;;;;;;7.67;5.70;;;3.30;94.90;;;;;;4303707;33;20609;-66
2021/01/08 07:29:46;;;;;;;8.67;4.80;;;3.20;94.90;;;;;;4309395;33;20261;-63
2021/01/08 07:32:33;;;;;;;7.70;5.30;;;3.30;94.90;;;;;;4311365;33;20639;-65
2021/01/08 07:35:14;;;;;;;9.93;5.60;;;3.30;94.90;;;;;;4311298;33;20181;-63
2021/01/08 07:38:04;;;;;;;7.97;4.83;;;3.30;94.80;;;;;;4311540;33;20295;-66
2021/01/08 07:40:34;;;;;;;8.17;5.07;;;3.30;94.70;;;;;;4311009;33;20227;-63
2021/01/08 07:43:04;;;;;;;6.17;4.40;;;3.30;94.70;;;;;;4309965;33;20247;-64
2021/01/08 07:45:51;;;;;;;6.50;5.03;;;3.30;94.70;;;;;;4307743;33;20255;-63
2021/01/08 07:48:23;;;;;;;6.67;4.67;;;3.20;94.60;;;;;;4312457;33;20286;-63
2021/01/08 07:50:57;;;;;;;8.37;4.50;;;3.20;94.50;;;;;;4310535;33;20213;-65
2021/01/08 07:53:50;;;;;;;10.17;5.20;;;3.20;94.50;;;;;;4315475;33;20276;-63
2021/01/08 07:56:18;;;;;;;9.00;6.17;;;3.10;94.50;;;;;;4318545;33;20172;-62
2021/01/08 07:58:46;;;;;;;8.93;5.63;;;3.10;94.70;;;;;;4315376;33;20220;-63
2021/01/08 08:01:18;;;;;;;9.23;6.30;;;3.10;94.80;;;;;;4311836;33;20248;-63
2021/01/08 08:04:01;;;;;;;7.97;6.20;;;3.20;95.00;;;;;;4316817;33;20162;-64
2021/01/08 08:06:31;;;;;;;6.53;5.33;;;3.20;95.00;;;;;;4313646;33;20221;-66
2021/01/08 08:08:59;;;;;;;8.73;6.27;;;3.30;95.00;;;;;;4317188;33;20168;-64
2021/01/08 08:11:38;;;;;;;10.30;6.47;;;3.30;94.90;;;;;;4315026;33;20669;-63
2021/01/08 08:14:12;;;;;;;10.27;7.07;;;3.30;95.00;;;;;;4314980;33;20307;-64
2021/01/08 08:16:40;;;;;;;8.17;5.83;;;3.30;95.00;;;;;;4311712;33;20169;-64
2021/01/08 08:19:08;;;;;;;12.33;7.33;;;3.30;95.30;;;;;;4314694;33;20166;-63
2021/01/08 08:21:36;;;;;;;7.17;6.23;;;3.30;95.20;;;;;;4312893;33;20610;-66
2021/01/08 08:24:04;;;;;;;10.97;7.37;;;3.40;95.10;;;;;;4318618;33;20835;-63
2021/01/08 08:26:42;;;;;;;10.07;5.80;;;3.40;95.20;;;;;;4312372;33;20176;-65
2021/01/08 08:29:13;;;;;;;8.87;5.57;;;3.40;95.30;;;;;;4314460;33;20208;-63
2021/01/08 08:31:53;;;;;;;8.77;5.30;;;3.40;95.30;;;;;;4307860;33;20284;-63
2021/01/08 08:34:28;;;;;;;7.43;5.50;;;3.60;95.30;;;;;;4309441;33;20259;-63
2021/01/08 08:37:06;;;;;;;7.77;5.10;;;3.70;95.20;;;;;;4291174;33;20149;-63
2021/01/08 08:39:37;;;;;;;8.60;5.17;;;3.70;95.00;;;;;;4291686;33;20173;-66
2021/01/08 08:42:07;;;;;;;6.37;4.57;;;3.70;94.90;;;;;;4295956;33;20213;-63
2021/01/08 08:44:41;;;;;;;7.77;4.43;;;3.80;94.80;;;;;;4292387;33;20198;-67
2021/01/08 08:47:08;;;;;;;6.47;4.50;;;3.90;94.60;;;;;;4281590;33;20280;-63
2021/01/08 08:49:38;;;;;;;7.60;4.57;;;4.00;94.40;;;;;;4295780;33;20173;-62
2021/01/08 08:52:07;;;;;;;9.33;4.87;;;4.00;94.00;;;;;;4292807;33;20174;-66
2021/01/08 08:54:38;;;;;;;6.37;4.07;;;4.00;94.00;;;;;;4294706;33;20263;-67
2021/01/08 08:57:16;;;;;;;7.20;4.07;;;4.00;94.00;;;;;;4292951;33;20277;-63
2021/01/08 08:59:43;;;;;;;5.70;4.60;;;4.10;93.80;;;;;;4294490;33;20177;-63
2021/01/08 09:02:23;;;;;;;5.90;3.50;;;4.00;93.70;;;;;;4293438;33;20193;-64
2021/01/08 09:04:57;;;;;;;6.70;3.90;;;3.90;93.70;;;;;;4294711;33;20154;-67
2021/01/08 09:07:30;;;;;;;7.47;4.33;;;4.00;93.70;;;;;;4289815;33;20189;-65
2021/01/08 09:10:03;;;;;;;8.00;4.50;;;4.00;93.50;;;;;;4294562;33;20161;-64
2021/01/08 09:12:41;;;;;;;7.73;5.43;;;4.00;93.20;;;;;;4294441;33;20244;-65
2021/01/08 09:25:26;;;;;;;10.07;5.53;;;3.70;94.00;;;;;;4296878;33;20199;-63
2021/01/08 09:27:53;;;;;;;8.90;5.97;;;3.60;94.10;;;;;;4292643;33;20598;-64
2021/01/08 09:30:20;;;;;;;9.23;6.13;;;3.60;94.20;;;;;;4290885;33;20231;-63
2021/01/08 09:32:46;;;;;;;8.77;5.90;;;3.60;94.20;;;;;;4292390;33;20244;-65
2021/01/08 09:35:18;;;;;;;7.93;5.20;;;3.70;94.20;;;;;;4300676;33;20235;-63
2021/01/08 09:37:50;;;;;;;10.97;5.20;;;3.70;94.20;;;;;;4308488;33;20212;-64
2021/01/08 09:40:20;;;;;;;6.90;4.73;;;3.80;94.00;;;;;;4309700;33;20229;-65
2021/01/08 09:42:48;;;;;;;8.83;5.00;;;3.80;93.90;;;;;;4312363;33;20181;-66
2021/01/08 09:45:20;;;;;;;6.27;4.77;;;3.80;93.80;;;;;;4308323;33;20201;-65
2021/01/08 09:47:56;;;;;;;8.40;4.70;;;3.80;93.90;;;;;;4308810;33;20154;-63
2021/01/08 09:50:32;;;;;;;6.10;4.90;;;3.80;93.90;;;;;;4311870;33;20201;-63
2021/01/08 09:53:11;;;;;;;5.07;3.93;;;3.90;93.70;;;;;;4313960;33;20165;-66
2021/01/08 09:55:39;;;;;;;7.93;4.27;;;4.00;93.70;;;;;;4310523;33;20226;-68
2021/01/08 09:58:07;;;;;;;6.17;3.90;;;4.10;93.50;;;;;;4313701;33;20177;-63
2021/01/08 10:00:35;;;;;;;5.30;3.77;;;4.10;93.20;;;;;;4312459;33;20628;-66
2021/01/08 10:03:05;;;;;;;6.60;4.50;;;4.20;92.90;;;;;;4311543;33;20555;-66
2021/01/08 10:05:33;;;;;;;5.50;4.30;;;4.30;93.10;;;;;;4310205;33;20170;-64
2021/01/08 10:08:02;;;;;;;5.97;4.10;;;4.40;92.90;;;;;;4313432;33;20491;-64
2021/01/08 10:10:45;;;;;;;7.47;3.87;;;4.50;92.70;;;;;;4309048;33;20237;-67
2021/01/08 10:13:17;;;;;;;6.40;3.63;;;4.60;92.40;;;;;;4306250;33;20162;-64
2021/01/08 10:15:48;;;;;;;5.17;4.20;;;4.80;92.00;;;;;;4309341;33;20201;-65
2021/01/08 10:18:17;;;;;;;4.60;3.67;;;4.80;91.70;;;;;;4311449;33;20248;-62
2021/01/08 10:20:47;;;;;;;5.70;4.40;;;4.60;91.50;;;;;;4308715;33;20232;-63
2021/01/08 10:23:23;;;;;;;4.77;3.70;;;4.60;91.90;;;;;;4309915;33;20163;-65
2021/01/08 10:25:53;;;;;;;4.83;4.00;;;4.60;91.90;;;;;;4310436;33;20189;-63
2021/01/08 10:28:22;;;;;;;6.47;4.17;;;4.60;91.60;;;;;;4314120;33;20282;-63
2021/01/08 10:30:50;;;;;;;4.87;3.40;;;4.60;91.90;;;;;;4159492;33;5103246;-66
2021/01/08 10:33:21;;;;;;;5.87;3.80;;;4.70;92.00;;;;;;4311747;33;20321;-67
2021/01/08 10:35:49;;;;;;;8.13;4.40;;;4.80;91.70;;;;;;4306532;33;20631;-64
2021/01/08 10:38:23;;;;;;;4.93;3.70;;;4.80;91.80;;;;;;4310484;33;20273;-68
2021/01/08 10:40:49;;;;;;;5.40;3.40;;;5.10;91.70;;;;;;4309344;33;20191;-69
2021/01/08 10:43:16;;;;;;;3.90;2.77;;;5.20;90.60;;;;;;4308687;33;20345;-68
2021/01/08 10:45:43;;;;;;;3.23;2.93;;;5.10;90.00;;;;;;4307271;33;20170;-65
2021/01/08 10:48:11;;;;;;;3.57;3.03;;;5.00;90.20;;;;;;4310966;33;20180;-64
2021/01/08 10:50:41;;;;;;;5.20;3.30;;;4.90;90.60;;;;;;4309952;33;20685;-66
2021/01/08 10:53:09;;;;;;;4.20;3.30;;;4.90;90.70;;;;;;4311790;33;20245;-63
2021/01/08 10:55:35;;;;;;;5.07;3.20;;;4.90;90.70;;;;;;4313746;33;20209;-66
2021/01/08 10:58:05;;;;;;;5.10;2.77;;;4.90;90.80;;;;;;4315546;33;20182;-63
2021/01/08 11:00:31;;;;;;;3.10;2.67;;;4.80;90.30;;;;;;4311944;33;20165;-63
2021/01/08 11:03:00;;;;;;;5.57;3.10;;;4.70;90.40;;;;;;4310333;33;20214;-65
2021/01/08 11:05:30;;;;;;;3.47;2.97;;;4.70;90.40;;;;;;4311702;33;20619;-66
2021/01/08 11:08:04;;;;;;;4.13;3.57;;;4.70;90.50;;;;;;4309276;33;20162;-64
2021/01/08 11:10:31;;;;;;;6.33;3.33;;;4.60;90.20;;;;;;4309191;33;20236;-67
2021/01/08 11:13:00;;;;;;;4.20;2.63;;;4.60;90.50;;;;;;4312778;33;20205;-65
2021/01/08 11:15:27;;;;;;;3.50;2.60;;;4.70;90.20;;;;;;4312374;33;20238;-66
2021/01/08 11:17:53;;;;;;;2.67;2.47;;;4.80;90.10;;;;;;4312843;33;20191;-64
2021/01/08 11:20:20;;;;;;;2.80;2.30;;;4.70;89.40;;;;;;4305231;33;20604;-65
2021/01/08 11:22:46;;;;;;;4.70;2.40;;;4.60;89.90;;;;;;4310272;33;20283;-65
2021/01/08 11:25:14;;;;;;;6.33;2.77;;;4.70;90.50;;;;;;4316107;33;20173;-66
2021/01/08 11:27:42;;;;;;;3.13;2.23;;;4.80;90.40;;;;;;4312839;33;20217;-65
2021/01/08 11:30:19;;;;;;;4.07;2.57;;;4.90;90.10;;;;;;4313916;33;20603;-65
2021/01/08 11:32:45;;;;;;;3.83;2.83;;;5.00;89.50;;;;;;4314702;33;20204;-68
2021/01/08 11:35:12;;;;;;;3.77;2.73;;;4.90;89.30;;;;;;4316979;33;20277;-65
2021/01/08 11:37:39;;;;;;;4.13;2.27;;;4.80;89.30;;;;;;4315150;33;20319;-65
2021/01/08 11:40:06;;;;;;;3.37;2.40;;;4.70;89.00;;;;;;4315102;33;20272;-66
2021/01/08 11:42:36;;;;;;;2.87;2.23;;;4.70;89.60;;;;;;4314113;33;20251;-64
2021/01/08 11:45:03;;;;;;;3.10;2.70;;;4.80;89.20;;;;;;4312547;33;20559;-65
2021/01/08 11:47:34;;;;;;;2.97;2.30;;;4.80;89.60;;;;;;4315863;33;20359;-67
2021/01/08 11:50:07;;;;;;;2.87;2.13;;;5.00;89.80;;;;;;4312428;33;20154;-64
2021/01/08 11:52:36;;;;;;;3.07;2.53;;;5.10;89.10;;;;;;4309379;33;20219;-66
2021/01/08 11:55:05;;;;;;;3.83;2.60;;;5.10;89.00;;;;;;4311272;33;20315;-65
2021/01/08 11:57:31;;;;;;;4.03;2.43;;;5.00;89.40;;;;;;4313588;33;20161;-62
2021/01/08 11:59:59;;;;;;;3.97;2.30;;;5.00;88.70;;;;;;4311695;33;20296;-64
2021/01/08 12:02:29;;;;;;;3.17;2.87;;;5.00;89.40;;;;;;4314448;33;20149;-64
2021/01/08 12:04:58;;;;;;;3.77;2.80;;;5.10;88.70;;;;;;4312212;33;20143;-66
2021/01/08 12:07:24;;;;;;;3.77;2.77;;;5.10;88.70;;;;;;4312014;33;20237;-67
2021/01/08 12:09:51;;;;;;;3.03;2.73;;;5.10;89.20;;;;;;4311292;33;20196;-64
2021/01/08 12:12:22;;;;;;;4.20;3.27;;;5.10;89.60;;;;;;4310459;33;20156;-63
2021/01/08 12:14:54;;;;;;;3.50;2.80;;;5.30;89.20;;;;;;4311141;33;20168;-65
2021/01/08 12:17:28;;;;;;;3.97;2.80;;;5.10;89.10;;;;;;4310823;33;20162;-65
2021/01/08 12:20:02;;;;;;;3.40;2.87;;;5.00;90.10;;;;;;4312899;33;20238;-64
2021/01/08 12:22:33;;;;;;;3.20;2.70;;;5.10;90.10;;;;;;4311581;33;20182;-64
2021/01/08 12:25:00;;;;;;;3.70;2.80;;;5.10;89.70;;;;;;4307173;33;20600;-66
2021/01/08 12:27:35;;;;;;;2.93;2.40;;;5.10;88.80;;;;;;4310355;33;20180;-64
2021/01/08 12:30:02;;;;;;;5.70;2.07;;;5.00;87.40;;;;;;4310397;33;20234;-66
2021/01/08 12:32:35;;;;;;;3.27;2.33;;;5.10;89.00;;;;;;4311975;33;20170;-63
2021/01/08 12:35:22;;;;;;;2.23;1.93;;;5.00;88.10;;;;;;4311473;33;20173;-65
2021/01/08 12:37:48;;;;;;;2.77;2.40;;;5.00;87.10;;;;;;4311823;33;20217;-67
2021/01/08 12:40:21;;;;;;;2.70;2.10;;;4.90;87.10;;;;;;4311012;33;20163;-64
2021/01/08 12:42:52;;;;;;;2.63;2.00;;;4.80;88.10;;;;;;4310593;33;20150;-64
2021/01/08 12:45:19;;;;;;;5.03;2.37;;;4.70;88.40;;;;;;4313156;33;20225;-64
2021/01/08 12:47:46;;;;;;;2.87;2.30;;;4.50;89.00;;;;;;4312848;33;20239;-67
2021/01/08 12:50:13;;;;;;;3.90;2.10;;;4.50;88.20;;;;;;4312086;33;20223;-64
2021/01/08 12:52:47;;;;;;;5.37;2.90;;;4.40;88.90;;;;;;4308609;33;20146;-64
2021/01/08 12:55:19;;;;;;;2.60;2.10;;;4.30;89.80;;;;;;4311808;33;20308;-63
2021/01/08 12:57:51;;;;;;;2.80;2.43;;;4.20;89.70;;;;;;4313045;33;20616;-63
2021/01/08 13:00:18;;;;;;;6.20;2.47;;;4.20;90.20;;;;;;4312537;33;20215;-63
2021/01/08 13:02:45;;;;;;;2.60;2.37;;;4.30;90.00;;;;;;4312671;33;20276;-64
2021/01/08 13:05:24;;;;;;;2.93;2.40;;;4.50;90.30;;;;;;4312909;33;20686;-64
2021/01/08 13:07:52;;;;;;;3.33;2.33;;;4.90;90.10;;;;;;4312152;33;20263;-64
2021/01/08 13:10:19;;;;;;;2.63;2.17;;;5.10;88.80;;;;;;4312870;33;20243;-65
2021/01/08 13:12:53;;;;;;;2.20;1.77;;;5.20;87.80;;;;;;4312196;33;20172;-64
2021/01/08 13:15:30;;;;;;;3.73;1.80;;;5.00;86.10;;;;;;4310297;33;20624;-65
2021/01/08 13:18:01;;;;;;;2.00;1.80;;;4.80;85.40;;;;;;4306863;33;20138;-65
2021/01/08 13:20:30;;;;;;;2.00;1.63;;;4.50;86.10;;;;;;4301025;33;20276;-64
2021/01/08 13:23:00;;;;;;;2.60;2.00;;;4.30;88.00;;;;;;4306202;33;20453;-65
2021/01/08 13:25:29;;;;;;;3.43;1.83;;;4.20;87.20;;;;;;4307834;33;20209;-64
2021/01/08 13:27:59;;;;;;;2.17;1.97;;;4.10;87.20;;;;;;4310778;33;20158;-66